sensor_id;sensor_type;location;lat;lon;timestamp;P1;durP1;ratioP1;P2;durP2;ratioP2
5285;SDS011;2665;53.112;7.358;2023-05-07T00:01:48;18.17;;;13.13;;
5285;SDS011;2665;53.112;7.358;2023-05-07T00:04:13;17.97;;;9.63;;
5285;SDS011;2665;53.112;7.358;2023-05-07T00:06:39;17.17;;;12.30;;
5285;SDS011;2665;53.112;7.358;2023-05-07T00:09:05;17.27;;;10.43;;
5285;SDS011;2665;53.112;7.358;2023-05-07T00:11:31;27.00;;;11.50;;
5285;SDS011;2665;53.112;7.358;2023-05-07T00:13:58;20.77;;;12.63;;
5285;SDS011;2665;53.112;7.358;2023-05-07T00:16:23;20.87;;;13.07;;
5285;SDS011;2665;53.112;7.358;2023-05-07T00:18:49;23.10;;;13.80;;
5285;SDS011;2665;53.112;7.358;2023-05-07T00:21:15;23.47;;;13.93;;
5285;SDS011;2665;53.112;7.358;2023-05-07T00:23:41;26.57;;;15.77;;
5285;SDS011;2665;53.112;7.358;2023-05-07T00:26:06;22.43;;;15.10;;
5285;SDS011;2665;53.112;7.358;2023-05-07T00:28:32;24.27;;;12.60;;
5285;SDS011;2665;53.112;7.358;2023-05-07T00:30:57;26.03;;;15.27;;
5285;SDS011;2665;53.112;7.358;2023-05-07T00:33:23;31.60;;;16.70;;
5285;SDS011;2665;53.112;7.358;2023-05-07T00:35:51;29.70;;;15.60;;
5285;SDS011;2665;53.112;7.358;2023-05-07T00:38:17;24.97;;;15.27;;
5285;SDS011;2665;53.112;7.358;2023-05-07T00:40:43;22.73;;;13.50;;
5285;SDS011;2665;53.112;7.358;2023-05-07T00:43:08;19.77;;;13.87;;
5285;SDS011;2665;53.112;7.358;2023-05-07T00:45:34;24.63;;;15.27;;
5285;SDS011;2665;53.112;7.358;2023-05-07T00:48:00;17.33;;;10.87;;
5285;SDS011;2665;53.112;7.358;2023-05-07T00:50:29;17.13;;;11.07;;
5285;SDS011;2665;53.112;7.358;2023-05-07T00:52:55;20.23;;;11.27;;
5285;SDS011;2665;53.112;7.358;2023-05-07T00:55:21;16.37;;;10.50;;
5285;SDS011;2665;53.112;7.358;2023-05-07T00:57:48;21.50;;;11.50;;
5285;SDS011;2665;53.112;7.358;2023-05-07T01:00:15;19.73;;;12.23;;
5285;SDS011;2665;53.112;7.358;2023-05-07T01:02:42;23.50;;;12.70;;
5285;SDS011;2665;53.112;7.358;2023-05-07T01:05:10;20.70;;;11.20;;
5285;SDS011;2665;53.112;7.358;2023-05-07T01:07:38;28.40;;;13.50;;
5285;SDS011;2665;53.112;7.358;2023-05-07T01:10:06;20.60;;;12.33;;
5285;SDS011;2665;53.112;7.358;2023-05-07T01:12:33;18.60;;;11.77;;
5285;SDS011;2665;53.112;7.358;2023-05-07T01:15:00;23.03;;;12.70;;
5285;SDS011;2665;53.112;7.358;2023-05-07T01:17:26;18.00;;;10.90;;
5285;SDS011;2665;53.112;7.358;2023-05-07T01:19:52;21.50;;;12.67;;
5285;SDS011;2665;53.112;7.358;2023-05-07T01:22:39;16.40;;;10.53;;
5285;SDS011;2665;53.112;7.358;2023-05-07T01:25:04;21.27;;;11.33;;
5285;SDS011;2665;53.112;7.358;2023-05-07T01:27:32;25.93;;;12.83;;
5285;SDS011;2665;53.112;7.358;2023-05-07T01:29:58;21.27;;;11.97;;
5285;SDS011;2665;53.112;7.358;2023-05-07T01:32:38;21.87;;;10.97;;
5285;SDS011;2665;53.112;7.358;2023-05-07T01:35:13;20.23;;;12.53;;
5285;SDS011;2665;53.112;7.358;2023-05-07T01:37:44;18.87;;;11.60;;
5285;SDS011;2665;53.112;7.358;2023-05-07T01:40:11;18.90;;;12.27;;
5285;SDS011;2665;53.112;7.358;2023-05-07T01:42:38;15.80;;;10.33;;
5285;SDS011;2665;53.112;7.358;2023-05-07T01:45:04;24.53;;;12.50;;
5285;SDS011;2665;53.112;7.358;2023-05-07T01:47:30;22.43;;;12.83;;
5285;SDS011;2665;53.112;7.358;2023-05-07T01:49:56;26.17;;;13.70;;
5285;SDS011;2665;53.112;7.358;2023-05-07T01:52:23;22.83;;;12.73;;
5285;SDS011;2665;53.112;7.358;2023-05-07T01:54:50;22.97;;;13.00;;
5285;SDS011;2665;53.112;7.358;2023-05-07T01:57:15;20.77;;;12.60;;
5285;SDS011;2665;53.112;7.358;2023-05-07T01:59:41;20.50;;;12.67;;
5285;SDS011;2665;53.112;7.358;2023-05-07T02:02:06;24.47;;;13.20;;
5285;SDS011;2665;53.112;7.358;2023-05-07T02:04:32;21.23;;;12.90;;
5285;SDS011;2665;53.112;7.358;2023-05-07T02:06:57;20.17;;;12.70;;
5285;SDS011;2665;53.112;7.358;2023-05-07T02:09:23;24.60;;;13.70;;
5285;SDS011;2665;53.112;7.358;2023-05-07T02:11:49;27.80;;;14.57;;
5285;SDS011;2665;53.112;7.358;2023-05-07T02:14:14;23.40;;;14.40;;
5285;SDS011;2665;53.112;7.358;2023-05-07T02:16:40;25.30;;;15.07;;
5285;SDS011;2665;53.112;7.358;2023-05-07T02:19:06;16.00;;;10.37;;
5285;SDS011;2665;53.112;7.358;2023-05-07T02:21:32;19.53;;;10.93;;
5285;SDS011;2665;53.112;7.358;2023-05-07T02:23:57;19.40;;;12.30;;
5285;SDS011;2665;53.112;7.358;2023-05-07T02:26:23;17.03;;;11.30;;
5285;SDS011;2665;53.112;7.358;2023-05-07T02:28:48;16.10;;;11.20;;
5285;SDS011;2665;53.112;7.358;2023-05-07T02:31:14;25.17;;;11.27;;
5285;SDS011;2665;53.112;7.358;2023-05-07T02:33:39;18.53;;;9.87;;
5285;SDS011;2665;53.112;7.358;2023-05-07T02:36:08;17.70;;;10.83;;
5285;SDS011;2665;53.112;7.358;2023-05-07T02:38:35;16.00;;;9.40;;
5285;SDS011;2665;53.112;7.358;2023-05-07T02:41:01;17.67;;;10.17;;
5285;SDS011;2665;53.112;7.358;2023-05-07T02:43:26;16.87;;;11.30;;
5285;SDS011;2665;53.112;7.358;2023-05-07T02:46:05;13.73;;;10.60;;
5285;SDS011;2665;53.112;7.358;2023-05-07T02:48:32;15.30;;;9.47;;
5285;SDS011;2665;53.112;7.358;2023-05-07T02:50:58;19.03;;;10.37;;
5285;SDS011;2665;53.112;7.358;2023-05-07T02:53:24;16.10;;;10.60;;
5285;SDS011;2665;53.112;7.358;2023-05-07T02:55:56;14.00;;;10.23;;
5285;SDS011;2665;53.112;7.358;2023-05-07T02:58:23;18.90;;;11.40;;
5285;SDS011;2665;53.112;7.358;2023-05-07T03:00:48;23.27;;;11.60;;
5285;SDS011;2665;53.112;7.358;2023-05-07T03:03:14;16.53;;;11.27;;
5285;SDS011;2665;53.112;7.358;2023-05-07T03:05:40;24.03;;;10.77;;
5285;SDS011;2665;53.112;7.358;2023-05-07T03:08:06;18.60;;;10.60;;
5285;SDS011;2665;53.112;7.358;2023-05-07T03:10:33;19.37;;;12.20;;
5285;SDS011;2665;53.112;7.358;2023-05-07T03:12:58;21.20;;;11.00;;
5285;SDS011;2665;53.112;7.358;2023-05-07T03:15:24;20.93;;;11.93;;
5285;SDS011;2665;53.112;7.358;2023-05-07T03:17:49;21.90;;;13.03;;
5285;SDS011;2665;53.112;7.358;2023-05-07T03:20:15;23.90;;;13.87;;
5285;SDS011;2665;53.112;7.358;2023-05-07T03:22:41;30.63;;;14.67;;
5285;SDS011;2665;53.112;7.358;2023-05-07T03:25:07;26.53;;;15.23;;
5285;SDS011;2665;53.112;7.358;2023-05-07T03:27:33;33.50;;;18.10;;
5285;SDS011;2665;53.112;7.358;2023-05-07T03:29:59;33.10;;;18.97;;
5285;SDS011;2665;53.112;7.358;2023-05-07T03:32:25;27.43;;;16.83;;
5285;SDS011;2665;53.112;7.358;2023-05-07T03:34:51;28.67;;;17.90;;
5285;SDS011;2665;53.112;7.358;2023-05-07T03:37:17;34.37;;;20.43;;
5285;SDS011;2665;53.112;7.358;2023-05-07T03:39:43;31.07;;;18.20;;
5285;SDS011;2665;53.112;7.358;2023-05-07T03:42:08;26.70;;;17.80;;
5285;SDS011;2665;53.112;7.358;2023-05-07T03:44:34;37.57;;;20.93;;
5285;SDS011;2665;53.112;7.358;2023-05-07T03:47:01;32.50;;;18.67;;
5285;SDS011;2665;53.112;7.358;2023-05-07T03:49:27;36.27;;;20.17;;
5285;SDS011;2665;53.112;7.358;2023-05-07T03:51:52;37.97;;;20.30;;
5285;SDS011;2665;53.112;7.358;2023-05-07T03:54:18;35.53;;;20.43;;
5285;SDS011;2665;53.112;7.358;2023-05-07T03:56:44;32.33;;;18.50;;
5285;SDS011;2665;53.112;7.358;2023-05-07T03:59:09;29.07;;;17.07;;
5285;SDS011;2665;53.112;7.358;2023-05-07T04:01:35;30.47;;;17.13;;
5285;SDS011;2665;53.112;7.358;2023-05-07T04:04:00;28.63;;;17.00;;
5285;SDS011;2665;53.112;7.358;2023-05-07T04:06:26;27.27;;;17.53;;
5285;SDS011;2665;53.112;7.358;2023-05-07T04:08:52;28.60;;;17.80;;
5285;SDS011;2665;53.112;7.358;2023-05-07T04:11:18;31.40;;;17.90;;
5285;SDS011;2665;53.112;7.358;2023-05-07T04:13:43;31.90;;;16.80;;
5285;SDS011;2665;53.112;7.358;2023-05-07T04:16:09;34.93;;;18.40;;
5285;SDS011;2665;53.112;7.358;2023-05-07T04:18:34;26.53;;;15.70;;
5285;SDS011;2665;53.112;7.358;2023-05-07T04:21:00;27.73;;;17.53;;
5285;SDS011;2665;53.112;7.358;2023-05-07T04:23:26;31.20;;;15.90;;
5285;SDS011;2665;53.112;7.358;2023-05-07T04:25:51;26.97;;;16.10;;
5285;SDS011;2665;53.112;7.358;2023-05-07T04:28:17;26.97;;;15.60;;
5285;SDS011;2665;53.112;7.358;2023-05-07T04:30:43;38.73;;;16.60;;
5285;SDS011;2665;53.112;7.358;2023-05-07T04:33:08;20.93;;;14.57;;
5285;SDS011;2665;53.112;7.358;2023-05-07T04:35:34;24.20;;;13.33;;
5285;SDS011;2665;53.112;7.358;2023-05-07T04:38:00;22.93;;;14.33;;
5285;SDS011;2665;53.112;7.358;2023-05-07T04:40:26;20.67;;;13.80;;
5285;SDS011;2665;53.112;7.358;2023-05-07T04:42:52;23.40;;;13.07;;
5285;SDS011;2665;53.112;7.358;2023-05-07T04:45:18;18.60;;;12.30;;
5285;SDS011;2665;53.112;7.358;2023-05-07T04:47:43;21.87;;;12.53;;
5285;SDS011;2665;53.112;7.358;2023-05-07T04:50:09;16.80;;;11.50;;
5285;SDS011;2665;53.112;7.358;2023-05-07T04:52:35;16.80;;;10.30;;
5285;SDS011;2665;53.112;7.358;2023-05-07T04:55:01;15.03;;;10.37;;
5285;SDS011;2665;53.112;7.358;2023-05-07T04:57:26;18.50;;;10.83;;
5285;SDS011;2665;53.112;7.358;2023-05-07T04:59:53;19.27;;;11.40;;
5285;SDS011;2665;53.112;7.358;2023-05-07T05:02:19;16.63;;;10.93;;
5285;SDS011;2665;53.112;7.358;2023-05-07T05:04:44;16.00;;;9.93;;
5285;SDS011;2665;53.112;7.358;2023-05-07T05:07:10;18.60;;;10.67;;
5285;SDS011;2665;53.112;7.358;2023-05-07T05:09:36;18.57;;;11.60;;
5285;SDS011;2665;53.112;7.358;2023-05-07T05:12:01;20.67;;;12.40;;
5285;SDS011;2665;53.112;7.358;2023-05-07T05:14:27;20.33;;;12.17;;
5285;SDS011;2665;53.112;7.358;2023-05-07T05:16:53;21.20;;;14.10;;
5285;SDS011;2665;53.112;7.358;2023-05-07T05:19:18;23.77;;;14.20;;
5285;SDS011;2665;53.112;7.358;2023-05-07T05:21:44;21.80;;;13.70;;
5285;SDS011;2665;53.112;7.358;2023-05-07T05:24:09;23.93;;;13.83;;
5285;SDS011;2665;53.112;7.358;2023-05-07T05:26:35;21.60;;;13.60;;
5285;SDS011;2665;53.112;7.358;2023-05-07T05:29:01;21.70;;;13.40;;
5285;SDS011;2665;53.112;7.358;2023-05-07T05:31:26;17.30;;;10.73;;
5285;SDS011;2665;53.112;7.358;2023-05-07T05:33:52;22.40;;;13.80;;
5285;SDS011;2665;53.112;7.358;2023-05-07T05:36:17;20.27;;;14.03;;
5285;SDS011;2665;53.112;7.358;2023-05-07T05:38:43;28.30;;;16.07;;
5285;SDS011;2665;53.112;7.358;2023-05-07T05:41:09;25.40;;;15.23;;
5285;SDS011;2665;53.112;7.358;2023-05-07T05:43:35;24.00;;;15.93;;
5285;SDS011;2665;53.112;7.358;2023-05-07T05:46:01;25.70;;;16.00;;
5285;SDS011;2665;53.112;7.358;2023-05-07T05:48:26;21.73;;;12.40;;
5285;SDS011;2665;53.112;7.358;2023-05-07T05:50:53;20.40;;;13.40;;
5285;SDS011;2665;53.112;7.358;2023-05-07T05:53:19;27.60;;;16.60;;
5285;SDS011;2665;53.112;7.358;2023-05-07T05:55:45;20.50;;;13.63;;
5285;SDS011;2665;53.112;7.358;2023-05-07T05:58:11;24.50;;;14.70;;
5285;SDS011;2665;53.112;7.358;2023-05-07T06:00:36;28.40;;;17.23;;
5285;SDS011;2665;53.112;7.358;2023-05-07T06:03:02;31.17;;;18.87;;
5285;SDS011;2665;53.112;7.358;2023-05-07T06:05:28;27.63;;;15.80;;
5285;SDS011;2665;53.112;7.358;2023-05-07T06:07:53;23.50;;;15.20;;
5285;SDS011;2665;53.112;7.358;2023-05-07T06:10:19;28.00;;;15.00;;
5285;SDS011;2665;53.112;7.358;2023-05-07T06:12:45;21.77;;;13.07;;
5285;SDS011;2665;53.112;7.358;2023-05-07T06:15:10;19.90;;;12.93;;
5285;SDS011;2665;53.112;7.358;2023-05-07T06:17:36;19.53;;;13.13;;
5285;SDS011;2665;53.112;7.358;2023-05-07T06:20:01;18.00;;;11.83;;
5285;SDS011;2665;53.112;7.358;2023-05-07T06:22:27;19.50;;;10.70;;
5285;SDS011;2665;53.112;7.358;2023-05-07T06:24:53;18.40;;;12.37;;
5285;SDS011;2665;53.112;7.358;2023-05-07T06:27:18;20.67;;;12.80;;
5285;SDS011;2665;53.112;7.358;2023-05-07T06:29:44;23.73;;;14.27;;
5285;SDS011;2665;53.112;7.358;2023-05-07T06:32:10;24.43;;;12.93;;
5285;SDS011;2665;53.112;7.358;2023-05-07T06:34:37;25.53;;;14.20;;
5285;SDS011;2665;53.112;7.358;2023-05-07T06:37:04;20.40;;;13.57;;
5285;SDS011;2665;53.112;7.358;2023-05-07T06:39:30;23.17;;;13.67;;
5285;SDS011;2665;53.112;7.358;2023-05-07T06:41:56;20.87;;;12.80;;
5285;SDS011;2665;53.112;7.358;2023-05-07T06:44:22;21.37;;;13.33;;
5285;SDS011;2665;53.112;7.358;2023-05-07T06:46:48;24.70;;;14.10;;
5285;SDS011;2665;53.112;7.358;2023-05-07T06:49:13;23.23;;;15.10;;
5285;SDS011;2665;53.112;7.358;2023-05-07T06:51:40;22.87;;;14.33;;
5285;SDS011;2665;53.112;7.358;2023-05-07T06:54:06;26.90;;;15.77;;
5285;SDS011;2665;53.112;7.358;2023-05-07T06:56:32;21.93;;;13.00;;
5285;SDS011;2665;53.112;7.358;2023-05-07T06:58:59;23.07;;;15.10;;
5285;SDS011;2665;53.112;7.358;2023-05-07T07:01:25;24.67;;;13.40;;
5285;SDS011;2665;53.112;7.358;2023-05-07T07:03:51;21.83;;;12.80;;
5285;SDS011;2665;53.112;7.358;2023-05-07T07:06:16;20.70;;;13.57;;
5285;SDS011;2665;53.112;7.358;2023-05-07T07:08:42;21.53;;;13.60;;
5285;SDS011;2665;53.112;7.358;2023-05-07T07:11:08;23.33;;;13.83;;
5285;SDS011;2665;53.112;7.358;2023-05-07T07:13:35;24.20;;;14.13;;
5285;SDS011;2665;53.112;7.358;2023-05-07T07:16:00;21.03;;;12.83;;
5285;SDS011;2665;53.112;7.358;2023-05-07T07:18:26;16.80;;;12.20;;
5285;SDS011;2665;53.112;7.358;2023-05-07T07:20:52;24.17;;;13.00;;
5285;SDS011;2665;53.112;7.358;2023-05-07T07:23:17;19.40;;;12.60;;
5285;SDS011;2665;53.112;7.358;2023-05-07T07:25:43;18.73;;;10.43;;
5285;SDS011;2665;53.112;7.358;2023-05-07T07:28:08;14.00;;;9.17;;
5285;SDS011;2665;53.112;7.358;2023-05-07T07:30:35;13.20;;;9.10;;
5285;SDS011;2665;53.112;7.358;2023-05-07T07:33:01;15.43;;;8.90;;
5285;SDS011;2665;53.112;7.358;2023-05-07T07:35:34;12.97;;;8.80;;
5285;SDS011;2665;53.112;7.358;2023-05-07T07:38:00;12.50;;;8.53;;
5285;SDS011;2665;53.112;7.358;2023-05-07T07:40:26;14.40;;;9.60;;
5285;SDS011;2665;53.112;7.358;2023-05-07T07:42:52;20.00;;;12.60;;
5285;SDS011;2665;53.112;7.358;2023-05-07T07:45:18;20.13;;;12.23;;
5285;SDS011;2665;53.112;7.358;2023-05-07T07:47:44;16.37;;;9.93;;
5285;SDS011;2665;53.112;7.358;2023-05-07T07:50:10;20.07;;;12.97;;
5285;SDS011;2665;53.112;7.358;2023-05-07T07:52:36;22.70;;;14.83;;
5285;SDS011;2665;53.112;7.358;2023-05-07T07:55:02;22.03;;;14.60;;
5285;SDS011;2665;53.112;7.358;2023-05-07T07:57:28;21.80;;;13.70;;
5285;SDS011;2665;53.112;7.358;2023-05-07T07:59:53;24.97;;;13.10;;
5285;SDS011;2665;53.112;7.358;2023-05-07T08:02:19;16.90;;;11.67;;
5285;SDS011;2665;53.112;7.358;2023-05-07T08:04:45;18.33;;;10.60;;
5285;SDS011;2665;53.112;7.358;2023-05-07T08:07:10;20.47;;;10.23;;
5285;SDS011;2665;53.112;7.358;2023-05-07T08:09:37;14.60;;;10.13;;
5285;SDS011;2665;53.112;7.358;2023-05-07T08:12:03;18.30;;;9.37;;
5285;SDS011;2665;53.112;7.358;2023-05-07T08:14:30;15.20;;;9.00;;
5285;SDS011;2665;53.112;7.358;2023-05-07T08:16:55;14.87;;;9.63;;
5285;SDS011;2665;53.112;7.358;2023-05-07T08:19:21;13.33;;;8.43;;
5285;SDS011;2665;53.112;7.358;2023-05-07T08:21:47;10.40;;;7.63;;
5285;SDS011;2665;53.112;7.358;2023-05-07T08:24:16;12.37;;;7.63;;
5285;SDS011;2665;53.112;7.358;2023-05-07T08:26:43;12.07;;;8.00;;
5285;SDS011;2665;53.112;7.358;2023-05-07T08:29:09;10.57;;;6.57;;
5285;SDS011;2665;53.112;7.358;2023-05-07T08:31:35;12.23;;;7.87;;
5285;SDS011;2665;53.112;7.358;2023-05-07T08:34:00;10.50;;;6.60;;
5285;SDS011;2665;53.112;7.358;2023-05-07T08:36:26;9.67;;;6.20;;
5285;SDS011;2665;53.112;7.358;2023-05-07T08:38:52;6.87;;;5.40;;
5285;SDS011;2665;53.112;7.358;2023-05-07T08:41:17;7.53;;;6.07;;
5285;SDS011;2665;53.112;7.358;2023-05-07T08:43:45;7.87;;;5.53;;
5285;SDS011;2665;53.112;7.358;2023-05-07T08:46:16;8.40;;;5.77;;
5285;SDS011;2665;53.112;7.358;2023-05-07T08:48:44;8.53;;;6.23;;
5285;SDS011;2665;53.112;7.358;2023-05-07T08:51:12;8.40;;;4.83;;
5285;SDS011;2665;53.112;7.358;2023-05-07T08:53:40;6.80;;;5.17;;
5285;SDS011;2665;53.112;7.358;2023-05-07T08:56:08;11.00;;;6.03;;
5285;SDS011;2665;53.112;7.358;2023-05-07T08:58:34;8.23;;;5.33;;
5285;SDS011;2665;53.112;7.358;2023-05-07T09:01:06;7.60;;;5.50;;
5285;SDS011;2665;53.112;7.358;2023-05-07T09:03:34;7.30;;;4.57;;
5285;SDS011;2665;53.112;7.358;2023-05-07T09:06:00;6.53;;;5.20;;
5285;SDS011;2665;53.112;7.358;2023-05-07T09:08:26;8.60;;;5.30;;
5285;SDS011;2665;53.112;7.358;2023-05-07T09:10:52;8.63;;;6.47;;
5285;SDS011;2665;53.112;7.358;2023-05-07T09:13:18;8.03;;;5.80;;
5285;SDS011;2665;53.112;7.358;2023-05-07T09:15:44;8.53;;;5.20;;
5285;SDS011;2665;53.112;7.358;2023-05-07T09:18:10;7.33;;;4.90;;
5285;SDS011;2665;53.112;7.358;2023-05-07T09:20:37;8.57;;;6.20;;
5285;SDS011;2665;53.112;7.358;2023-05-07T09:23:03;7.60;;;5.43;;
5285;SDS011;2665;53.112;7.358;2023-05-07T09:25:29;7.13;;;6.00;;
5285;SDS011;2665;53.112;7.358;2023-05-07T09:27:56;11.33;;;6.83;;
5285;SDS011;2665;53.112;7.358;2023-05-07T09:30:22;7.87;;;5.37;;
5285;SDS011;2665;53.112;7.358;2023-05-07T09:32:47;7.67;;;5.73;;
5285;SDS011;2665;53.112;7.358;2023-05-07T09:35:16;8.47;;;5.23;;
5285;SDS011;2665;53.112;7.358;2023-05-07T09:37:43;7.27;;;5.33;;
5285;SDS011;2665;53.112;7.358;2023-05-07T09:40:11;6.47;;;5.10;;
5285;SDS011;2665;53.112;7.358;2023-05-07T09:42:46;9.13;;;5.50;;
5285;SDS011;2665;53.112;7.358;2023-05-07T09:45:12;7.80;;;5.77;;
5285;SDS011;2665;53.112;7.358;2023-05-07T09:47:38;8.90;;;5.90;;
5285;SDS011;2665;53.112;7.358;2023-05-07T09:50:05;7.93;;;5.27;;
5285;SDS011;2665;53.112;7.358;2023-05-07T09:52:34;6.57;;;5.13;;
5285;SDS011;2665;53.112;7.358;2023-05-07T09:55:00;10.73;;;6.83;;
5285;SDS011;2665;53.112;7.358;2023-05-07T09:57:27;9.40;;;5.70;;
5285;SDS011;2665;53.112;7.358;2023-05-07T09:59:53;9.03;;;6.07;;
5285;SDS011;2665;53.112;7.358;2023-05-07T10:02:20;6.90;;;5.20;;
5285;SDS011;2665;53.112;7.358;2023-05-07T10:04:46;5.47;;;4.87;;
5285;SDS011;2665;53.112;7.358;2023-05-07T10:07:13;7.17;;;5.57;;
5285;SDS011;2665;53.112;7.358;2023-05-07T10:09:40;8.13;;;5.00;;
5285;SDS011;2665;53.112;7.358;2023-05-07T10:12:07;5.87;;;5.10;;
5285;SDS011;2665;53.112;7.358;2023-05-07T10:14:34;7.40;;;5.50;;
5285;SDS011;2665;53.112;7.358;2023-05-07T10:17:00;11.40;;;5.97;;
5285;SDS011;2665;53.112;7.358;2023-05-07T10:19:27;7.30;;;5.70;;
5285;SDS011;2665;53.112;7.358;2023-05-07T10:21:55;8.70;;;5.77;;
5285;SDS011;2665;53.112;7.358;2023-05-07T10:24:25;8.03;;;6.00;;
5285;SDS011;2665;53.112;7.358;2023-05-07T10:26:52;8.50;;;6.43;;
5285;SDS011;2665;53.112;7.358;2023-05-07T10:29:20;11.90;;;8.63;;
5285;SDS011;2665;53.112;7.358;2023-05-07T10:31:51;9.77;;;7.90;;
5285;SDS011;2665;53.112;7.358;2023-05-07T10:34:23;10.93;;;8.50;;
5285;SDS011;2665;53.112;7.358;2023-05-07T10:36:50;9.40;;;7.70;;
5285;SDS011;2665;53.112;7.358;2023-05-07T10:39:17;9.30;;;7.70;;
5285;SDS011;2665;53.112;7.358;2023-05-07T10:41:44;13.93;;;9.00;;
5285;SDS011;2665;53.112;7.358;2023-05-07T10:44:10;8.87;;;7.77;;
5285;SDS011;2665;53.112;7.358;2023-05-07T10:46:36;8.47;;;6.80;;
5285;SDS011;2665;53.112;7.358;2023-05-07T10:51:30;7.67;;;6.87;;
5285;SDS011;2665;53.112;7.358;2023-05-07T10:56:39;7.60;;;6.20;;
5285;SDS011;2665;53.112;7.358;2023-05-07T11:04:22;8.10;;;6.13;;
5285;SDS011;2665;53.112;7.358;2023-05-07T11:15:14;8.80;;;5.80;;
5285;SDS011;2665;53.112;7.358;2023-05-07T11:17:57;8.57;;;6.40;;
5285;SDS011;2665;53.112;7.358;2023-05-07T11:20:43;6.20;;;4.90;;
5285;SDS011;2665;53.112;7.358;2023-05-07T11:26:03;5.40;;;4.60;;
5285;SDS011;2665;53.112;7.358;2023-05-07T11:28:30;7.77;;;5.20;;
5285;SDS011;2665;53.112;7.358;2023-05-07T11:30:57;9.00;;;5.87;;
5285;SDS011;2665;53.112;7.358;2023-05-07T11:33:23;8.47;;;5.20;;
5285;SDS011;2665;53.112;7.358;2023-05-07T11:35:55;7.60;;;5.07;;
5285;SDS011;2665;53.112;7.358;2023-05-07T11:38:21;7.90;;;4.67;;
5285;SDS011;2665;53.112;7.358;2023-05-07T11:40:50;6.10;;;5.03;;
5285;SDS011;2665;53.112;7.358;2023-05-07T11:43:16;5.93;;;4.70;;
5285;SDS011;2665;53.112;7.358;2023-05-07T11:45:42;6.13;;;4.50;;
5285;SDS011;2665;53.112;7.358;2023-05-07T11:48:09;9.50;;;5.03;;
5285;SDS011;2665;53.112;7.358;2023-05-07T11:50:35;6.13;;;4.80;;
5285;SDS011;2665;53.112;7.358;2023-05-07T11:53:00;6.50;;;4.57;;
5285;SDS011;2665;53.112;7.358;2023-05-07T11:55:32;5.50;;;4.63;;
5285;SDS011;2665;53.112;7.358;2023-05-07T11:57:58;5.03;;;4.40;;
5285;SDS011;2665;53.112;7.358;2023-05-07T12:00:24;4.70;;;4.20;;
5285;SDS011;2665;53.112;7.358;2023-05-07T12:02:49;5.20;;;4.70;;
5285;SDS011;2665;53.112;7.358;2023-05-07T12:05:15;5.30;;;4.67;;
5285;SDS011;2665;53.112;7.358;2023-05-07T12:07:41;4.93;;;4.17;;
5285;SDS011;2665;53.112;7.358;2023-05-07T12:10:07;7.90;;;4.57;;
5285;SDS011;2665;53.112;7.358;2023-05-07T12:12:39;8.17;;;4.40;;
5285;SDS011;2665;53.112;7.358;2023-05-07T12:15:06;4.63;;;3.80;;
5285;SDS011;2665;53.112;7.358;2023-05-07T12:17:32;4.40;;;4.00;;
5285;SDS011;2665;53.112;7.358;2023-05-07T12:19:58;5.90;;;4.57;;
5285;SDS011;2665;53.112;7.358;2023-05-07T12:22:25;6.40;;;4.73;;
5285;SDS011;2665;53.112;7.358;2023-05-07T12:24:57;5.23;;;4.50;;
5285;SDS011;2665;53.112;7.358;2023-05-07T12:27:23;5.13;;;4.53;;
5285;SDS011;2665;53.112;7.358;2023-05-07T12:29:50;5.33;;;4.60;;
5285;SDS011;2665;53.112;7.358;2023-05-07T12:32:16;10.07;;;5.17;;
5285;SDS011;2665;53.112;7.358;2023-05-07T12:34:43;5.43;;;4.80;;
5285;SDS011;2665;53.112;7.358;2023-05-07T12:37:09;6.30;;;4.57;;
5285;SDS011;2665;53.112;7.358;2023-05-07T12:39:35;6.80;;;4.83;;
5285;SDS011;2665;53.112;7.358;2023-05-07T12:42:01;5.00;;;4.30;;
5285;SDS011;2665;53.112;7.358;2023-05-07T12:44:34;4.80;;;3.57;;
5285;SDS011;2665;53.112;7.358;2023-05-07T12:47:03;5.60;;;4.00;;
5285;SDS011;2665;53.112;7.358;2023-05-07T12:49:28;4.40;;;3.57;;
5285;SDS011;2665;53.112;7.358;2023-05-07T12:51:54;4.50;;;3.90;;
5285;SDS011;2665;53.112;7.358;2023-05-07T12:57:05;8.80;;;4.07;;
5285;SDS011;2665;53.112;7.358;2023-05-07T12:59:40;4.90;;;4.33;;
5285;SDS011;2665;53.112;7.358;2023-05-07T13:02:07;8.30;;;4.20;;
5285;SDS011;2665;53.112;7.358;2023-05-07T13:04:34;4.30;;;3.90;;
5285;SDS011;2665;53.112;7.358;2023-05-07T13:07:00;5.03;;;4.47;;
5285;SDS011;2665;53.112;7.358;2023-05-07T13:09:26;4.47;;;3.77;;
5285;SDS011;2665;53.112;7.358;2023-05-07T13:11:53;4.50;;;4.10;;
5285;SDS011;2665;53.112;7.358;2023-05-07T13:14:19;4.37;;;3.97;;
5285;SDS011;2665;53.112;7.358;2023-05-07T13:16:46;6.00;;;4.65;;
5285;SDS011;2665;53.112;7.358;2023-05-07T13:19:14;4.63;;;3.87;;
5285;SDS011;2665;53.112;7.358;2023-05-07T13:21:40;6.40;;;4.57;;
5285;SDS011;2665;53.112;7.358;2023-05-07T13:24:05;4.70;;;4.13;;
5285;SDS011;2665;53.112;7.358;2023-05-07T13:26:31;6.03;;;4.80;;
5285;SDS011;2665;53.112;7.358;2023-05-07T13:28:57;5.50;;;4.27;;
5285;SDS011;2665;53.112;7.358;2023-05-07T13:31:23;4.47;;;4.07;;
5285;SDS011;2665;53.112;7.358;2023-05-07T13:33:49;4.90;;;4.23;;
5285;SDS011;2665;53.112;7.358;2023-05-07T13:36:15;4.47;;;4.07;;
5285;SDS011;2665;53.112;7.358;2023-05-07T13:38:41;6.73;;;4.40;;
5285;SDS011;2665;53.112;7.358;2023-05-07T13:41:06;5.80;;;5.10;;
5285;SDS011;2665;53.112;7.358;2023-05-07T13:43:32;4.67;;;4.17;;
5285;SDS011;2665;53.112;7.358;2023-05-07T13:46:00;4.77;;;4.37;;
5285;SDS011;2665;53.112;7.358;2023-05-07T13:48:26;4.60;;;4.00;;
5285;SDS011;2665;53.112;7.358;2023-05-07T13:50:53;6.83;;;5.17;;
5285;SDS011;2665;53.112;7.358;2023-05-07T13:53:18;5.27;;;4.77;;
5285;SDS011;2665;53.112;7.358;2023-05-07T13:55:44;6.10;;;5.50;;
5285;SDS011;2665;53.112;7.358;2023-05-07T13:58:10;5.60;;;5.10;;
5285;SDS011;2665;53.112;7.358;2023-05-07T14:00:35;5.70;;;4.80;;
5285;SDS011;2665;53.112;7.358;2023-05-07T14:03:01;6.90;;;4.87;;
5285;SDS011;2665;53.112;7.358;2023-05-07T14:05:27;6.47;;;5.40;;
5285;SDS011;2665;53.112;7.358;2023-05-07T14:07:53;5.63;;;5.13;;
5285;SDS011;2665;53.112;7.358;2023-05-07T14:10:20;5.57;;;5.07;;
5285;SDS011;2665;53.112;7.358;2023-05-07T14:12:45;5.47;;;4.90;;
5285;SDS011;2665;53.112;7.358;2023-05-07T14:15:12;5.40;;;4.90;;
5285;SDS011;2665;53.112;7.358;2023-05-07T14:17:37;4.90;;;4.40;;
5285;SDS011;2665;53.112;7.358;2023-05-07T14:20:03;5.30;;;4.80;;
5285;SDS011;2665;53.112;7.358;2023-05-07T14:22:31;5.23;;;4.43;;
5285;SDS011;2665;53.112;7.358;2023-05-07T14:24:56;5.10;;;4.60;;
5285;SDS011;2665;53.112;7.358;2023-05-07T14:27:22;5.30;;;4.80;;
5285;SDS011;2665;53.112;7.358;2023-05-07T14:29:47;5.23;;;4.77;;
5285;SDS011;2665;53.112;7.358;2023-05-07T14:32:16;4.77;;;4.30;;
5285;SDS011;2665;53.112;7.358;2023-05-07T14:34:45;5.00;;;4.30;;
5285;SDS011;2665;53.112;7.358;2023-05-07T14:37:11;4.93;;;4.53;;
5285;SDS011;2665;53.112;7.358;2023-05-07T14:39:37;5.70;;;4.90;;
5285;SDS011;2665;53.112;7.358;2023-05-07T14:42:03;6.53;;;4.50;;
5285;SDS011;2665;53.112;7.358;2023-05-07T14:44:29;4.13;;;3.73;;
5285;SDS011;2665;53.112;7.358;2023-05-07T14:46:54;6.33;;;5.00;;
5285;SDS011;2665;53.112;7.358;2023-05-07T14:49:20;5.10;;;4.60;;
5285;SDS011;2665;53.112;7.358;2023-05-07T14:51:46;5.73;;;5.13;;
5285;SDS011;2665;53.112;7.358;2023-05-07T14:54:12;5.17;;;4.67;;
5285;SDS011;2665;53.112;7.358;2023-05-07T14:56:38;5.17;;;4.67;;
5285;SDS011;2665;53.112;7.358;2023-05-07T14:59:05;4.27;;;3.70;;
5285;SDS011;2665;53.112;7.358;2023-05-07T15:01:30;4.60;;;4.20;;
5285;SDS011;2665;53.112;7.358;2023-05-07T15:03:56;4.83;;;4.20;;
5285;SDS011;2665;53.112;7.358;2023-05-07T15:06:22;4.60;;;4.13;;
5285;SDS011;2665;53.112;7.358;2023-05-07T15:08:48;4.80;;;4.30;;
5285;SDS011;2665;53.112;7.358;2023-05-07T15:11:13;4.90;;;4.40;;
5285;SDS011;2665;53.112;7.358;2023-05-07T15:13:42;4.60;;;3.90;;
5285;SDS011;2665;53.112;7.358;2023-05-07T15:16:07;5.57;;;4.53;;
5285;SDS011;2665;53.112;7.358;2023-05-07T15:18:33;4.90;;;4.50;;
5285;SDS011;2665;53.112;7.358;2023-05-07T15:20:59;4.40;;;4.00;;